Startpagina
METAR-TAF:

METAR-TAF

Vliegvelden :

Gibraltar Airport

Gibraltar, Gibraltar

breedte: 36-09N, lengte: 005-21W, hoogte: 5 m

Actueel weer

Dit bericht is 15 minuten geleden gemaakt, om 10:50 UTC
Wind 3 kt uit het westen
Temperatuur 14°C
Vochtigheid 67%
Druk 1021 hPa
Zicht 10 km of meer
Weinig wolken op 2400 ft

METAR: LXGB 161050Z 26003KT 9999 FEW024 14/08 Q1021 NOSIG

Tijdstip: 12:05 (11:05 UTC)

Verwachting

Dit bericht is 3 uur en het 32 minuten geleden gemaakt, om 07:33 UTC
Verwachting geldig van 16 om 09 UTC tot 16 om 18 UTC
Wind 8 kt uit het westzuidwesten
Zicht 10 km of meer
Weinig wolken op 2000 ft
Verspreide wolken op 4500 ft
Kans 30% :
Tijdelijke
van 16 om 15 UTC tot 16 om 18 UTC
Verspreide wolken op 2000 ft
lichte regenbuien

TAF: LXGB 160733Z 1609/1618 25008KT 9999 FEW020 SCT045 PROB30 TEMPO 1615/1618 -SHRA SCT020

Waarnemingen en weersverwachtingen van meer dan 4000 vliegvelden (METAR en TAF).

De beschikbare stations zijn de gele en rode punten op de kaart.

Ga met uw muis naar het station om de naam te zien.

Klik dan om waarnemingen en weersverwachtingen te zien.

kaart wijzigen: klik op de groene knoppen met een zwart kruis om in te zoomen, op de groene knop met een streepje om uit te zoomen of op de groene pijlen voor aangrenzende kaarten.


METAR-TAF: